sensor_id;sensor_type;location;lat;lon;timestamp;temperature;humidity
11128;DHT22;5618;51.028;5.234;2022-09-09T00:02:21;17.60;99.90
11128;DHT22;5618;51.028;5.234;2022-09-09T00:05:16;17.50;99.90
11128;DHT22;5618;51.028;5.234;2022-09-09T00:07:47;17.30;99.90
11128;DHT22;5618;51.028;5.234;2022-09-09T00:15:55;17.30;99.90
11128;DHT22;5618;51.028;5.234;2022-09-09T00:18:27;17.20;99.90
11128;DHT22;5618;51.028;5.234;2022-09-09T00:20:59;17.20;99.90
11128;DHT22;5618;51.028;5.234;2022-09-09T00:23:30;17.30;99.90
11128;DHT22;5618;51.028;5.234;2022-09-09T00:31:31;17.30;99.90
11128;DHT22;5618;51.028;5.234;2022-09-09T00:34:21;17.30;99.90
11128;DHT22;5618;51.028;5.234;2022-09-09T00:36:50;17.30;99.90
11128;DHT22;5618;51.028;5.234;2022-09-09T00:44:37;17.50;99.90
11128;DHT22;5618;51.028;5.234;2022-09-09T00:52:36;17.50;99.90
11128;DHT22;5618;51.028;5.234;2022-09-09T00:57:52;17.60;99.90
11128;DHT22;5618;51.028;5.234;2022-09-09T01:00:27;17.70;99.90
11128;DHT22;5618;51.028;5.234;2022-09-09T01:06:29;17.60;99.90
11128;DHT22;5618;51.028;5.234;2022-09-09T01:12:02;17.30;99.90
11128;DHT22;5618;51.028;5.234;2022-09-09T01:19:57;17.10;99.90
11128;DHT22;5618;51.028;5.234;2022-09-09T01:22:58;17.10;99.90
11128;DHT22;5618;51.028;5.234;2022-09-09T01:27:56;17.20;99.90
11128;DHT22;5618;51.028;5.234;2022-09-09T01:30:23;17.30;99.90
11128;DHT22;5618;51.028;5.234;2022-09-09T01:32:54;17.60;99.90
11128;DHT22;5618;51.028;5.234;2022-09-09T01:38:11;17.70;99.90
11128;DHT22;5618;51.028;5.234;2022-09-09T01:40:37;17.70;99.90
11128;DHT22;5618;51.028;5.234;2022-09-09T01:43:04;17.60;99.90
11128;DHT22;5618;51.028;5.234;2022-09-09T01:45:30;17.60;99.90
11128;DHT22;5618;51.028;5.234;2022-09-09T01:47:56;17.50;99.90
11128;DHT22;5618;51.028;5.234;2022-09-09T01:50:22;17.40;99.90
11128;DHT22;5618;51.028;5.234;2022-09-09T01:52:58;17.30;99.90
11128;DHT22;5618;51.028;5.234;2022-09-09T01:55:30;17.50;99.90
11128;DHT22;5618;51.028;5.234;2022-09-09T02:00:28;17.50;99.90
11128;DHT22;5618;51.028;5.234;2022-09-09T02:03:09;17.30;99.90
11128;DHT22;5618;51.028;5.234;2022-09-09T02:05:43;17.30;99.90
11128;DHT22;5618;51.028;5.234;2022-09-09T02:08:17;17.10;99.90
11128;DHT22;5618;51.028;5.234;2022-09-09T02:11:07;17.00;99.90
11128;DHT22;5618;51.028;5.234;2022-09-09T02:13:36;17.10;99.90
11128;DHT22;5618;51.028;5.234;2022-09-09T02:16:15;17.10;99.90
11128;DHT22;5618;51.028;5.234;2022-09-09T02:21:52;17.40;99.90
11128;DHT22;5618;51.028;5.234;2022-09-09T02:24:19;17.30;99.90
11128;DHT22;5618;51.028;5.234;2022-09-09T02:26:48;17.30;99.90
11128;DHT22;5618;51.028;5.234;2022-09-09T02:29:18;17.30;99.90
11128;DHT22;5618;51.028;5.234;2022-09-09T02:31:45;17.30;99.90
11128;DHT22;5618;51.028;5.234;2022-09-09T02:34:13;17.50;99.90
11128;DHT22;5618;51.028;5.234;2022-09-09T02:36:40;17.50;99.90
11128;DHT22;5618;51.028;5.234;2022-09-09T02:39:09;17.50;99.90
11128;DHT22;5618;51.028;5.234;2022-09-09T02:41:38;17.50;99.90
11128;DHT22;5618;51.028;5.234;2022-09-09T02:44:12;17.50;99.90
11128;DHT22;5618;51.028;5.234;2022-09-09T02:47:07;17.60;99.90
11128;DHT22;5618;51.028;5.234;2022-09-09T02:52:19;17.50;99.90
11128;DHT22;5618;51.028;5.234;2022-09-09T02:54:49;17.60;99.90
11128;DHT22;5618;51.028;5.234;2022-09-09T02:57:27;17.50;99.90
11128;DHT22;5618;51.028;5.234;2022-09-09T02:59:57;17.60;99.90
11128;DHT22;5618;51.028;5.234;2022-09-09T03:02:23;17.60;99.90
11128;DHT22;5618;51.028;5.234;2022-09-09T03:04:50;17.40;99.90
11128;DHT22;5618;51.028;5.234;2022-09-09T03:07:20;17.30;99.90
11128;DHT22;5618;51.028;5.234;2022-09-09T03:09:46;17.20;99.90
11128;DHT22;5618;51.028;5.234;2022-09-09T03:12:12;17.30;99.90
11128;DHT22;5618;51.028;5.234;2022-09-09T03:14:38;17.30;99.90
11128;DHT22;5618;51.028;5.234;2022-09-09T03:17:05;17.20;99.90
11128;DHT22;5618;51.028;5.234;2022-09-09T03:19:31;17.10;99.90
11128;DHT22;5618;51.028;5.234;2022-09-09T03:21:57;17.00;99.90
11128;DHT22;5618;51.028;5.234;2022-09-09T03:24:24;17.00;99.90
11128;DHT22;5618;51.028;5.234;2022-09-09T03:26:49;17.00;99.90
11128;DHT22;5618;51.028;5.234;2022-09-09T03:29:16;17.00;99.90
11128;DHT22;5618;51.028;5.234;2022-09-09T03:31:43;17.00;99.90
11128;DHT22;5618;51.028;5.234;2022-09-09T03:34:09;17.00;99.90
11128;DHT22;5618;51.028;5.234;2022-09-09T03:36:35;17.10;99.90
11128;DHT22;5618;51.028;5.234;2022-09-09T03:39:01;17.00;99.90
11128;DHT22;5618;51.028;5.234;2022-09-09T03:41:28;16.80;99.90
11128;DHT22;5618;51.028;5.234;2022-09-09T03:43:54;16.80;99.90
11128;DHT22;5618;51.028;5.234;2022-09-09T03:46:21;16.80;99.90
11128;DHT22;5618;51.028;5.234;2022-09-09T03:48:47;17.00;99.90
11128;DHT22;5618;51.028;5.234;2022-09-09T03:51:13;17.00;99.90
11128;DHT22;5618;51.028;5.234;2022-09-09T03:53:39;16.90;99.90
11128;DHT22;5618;51.028;5.234;2022-09-09T03:56:06;17.00;99.90
11128;DHT22;5618;51.028;5.234;2022-09-09T03:58:35;17.10;99.90
11128;DHT22;5618;51.028;5.234;2022-09-09T04:01:06;17.20;99.90
11128;DHT22;5618;51.028;5.234;2022-09-09T04:03:34;17.10;99.90
11128;DHT22;5618;51.028;5.234;2022-09-09T04:06:01;17.00;99.90
11128;DHT22;5618;51.028;5.234;2022-09-09T04:08:29;16.80;99.90
11128;DHT22;5618;51.028;5.234;2022-09-09T04:10:57;16.90;99.90
11128;DHT22;5618;51.028;5.234;2022-09-09T04:13:24;16.80;99.90
11128;DHT22;5618;51.028;5.234;2022-09-09T04:15:52;16.90;99.90
11128;DHT22;5618;51.028;5.234;2022-09-09T04:18:18;16.90;99.90
11128;DHT22;5618;51.028;5.234;2022-09-09T04:20:47;16.90;99.90
11128;DHT22;5618;51.028;5.234;2022-09-09T04:23:13;16.70;99.90
11128;DHT22;5618;51.028;5.234;2022-09-09T04:25:44;16.70;99.90
11128;DHT22;5618;51.028;5.234;2022-09-09T04:28:10;16.70;99.90
11128;DHT22;5618;51.028;5.234;2022-09-09T04:30:35;16.60;99.90
11128;DHT22;5618;51.028;5.234;2022-09-09T04:33:01;16.60;99.90
11128;DHT22;5618;51.028;5.234;2022-09-09T04:35:27;16.60;99.90
11128;DHT22;5618;51.028;5.234;2022-09-09T04:37:52;16.50;99.90
11128;DHT22;5618;51.028;5.234;2022-09-09T04:40:18;16.70;99.90
11128;DHT22;5618;51.028;5.234;2022-09-09T04:42:44;16.80;99.90
11128;DHT22;5618;51.028;5.234;2022-09-09T04:45:09;16.90;99.90
11128;DHT22;5618;51.028;5.234;2022-09-09T04:47:36;16.80;99.90
11128;DHT22;5618;51.028;5.234;2022-09-09T04:50:02;16.80;99.90
11128;DHT22;5618;51.028;5.234;2022-09-09T04:52:28;16.90;99.90
11128;DHT22;5618;51.028;5.234;2022-09-09T04:54:53;16.90;99.90
11128;DHT22;5618;51.028;5.234;2022-09-09T04:57:19;16.90;99.90
11128;DHT22;5618;51.028;5.234;2022-09-09T04:59:45;16.90;99.90
11128;DHT22;5618;51.028;5.234;2022-09-09T05:02:11;16.80;99.90
11128;DHT22;5618;51.028;5.234;2022-09-09T05:04:37;16.60;99.90
11128;DHT22;5618;51.028;5.234;2022-09-09T05:07:03;16.60;99.90
11128;DHT22;5618;51.028;5.234;2022-09-09T05:09:28;16.60;99.90
11128;DHT22;5618;51.028;5.234;2022-09-09T05:11:55;16.60;99.90
11128;DHT22;5618;51.028;5.234;2022-09-09T05:14:21;16.50;99.90
11128;DHT22;5618;51.028;5.234;2022-09-09T05:16:48;16.60;99.90
11128;DHT22;5618;51.028;5.234;2022-09-09T05:19:15;16.60;99.90
11128;DHT22;5618;51.028;5.234;2022-09-09T05:21:40;16.50;99.90
11128;DHT22;5618;51.028;5.234;2022-09-09T05:24:06;16.40;99.90
11128;DHT22;5618;51.028;5.234;2022-09-09T05:26:32;16.50;99.90
11128;DHT22;5618;51.028;5.234;2022-09-09T05:28:58;16.60;99.90
11128;DHT22;5618;51.028;5.234;2022-09-09T05:31:26;16.70;99.90
11128;DHT22;5618;51.028;5.234;2022-09-09T05:33:53;16.70;99.90
11128;DHT22;5618;51.028;5.234;2022-09-09T05:36:20;16.80;99.90
11128;DHT22;5618;51.028;5.234;2022-09-09T05:38:47;16.70;99.90
11128;DHT22;5618;51.028;5.234;2022-09-09T05:41:14;16.80;99.90
11128;DHT22;5618;51.028;5.234;2022-09-09T05:43:43;16.70;99.90
11128;DHT22;5618;51.028;5.234;2022-09-09T05:46:14;16.70;99.90
11128;DHT22;5618;51.028;5.234;2022-09-09T05:48:42;16.50;99.90
11128;DHT22;5618;51.028;5.234;2022-09-09T05:51:13;16.40;99.90
11128;DHT22;5618;51.028;5.234;2022-09-09T05:53:41;16.30;99.90
11128;DHT22;5618;51.028;5.234;2022-09-09T05:56:13;16.50;99.90
11128;DHT22;5618;51.028;5.234;2022-09-09T05:58:40;16.70;99.90
11128;DHT22;5618;51.028;5.234;2022-09-09T06:01:14;16.50;99.90
11128;DHT22;5618;51.028;5.234;2022-09-09T06:03:41;16.50;99.90
11128;DHT22;5618;51.028;5.234;2022-09-09T06:06:10;16.60;99.90
11128;DHT22;5618;51.028;5.234;2022-09-09T06:08:38;16.70;99.90
11128;DHT22;5618;51.028;5.234;2022-09-09T06:11:06;16.80;99.90
11128;DHT22;5618;51.028;5.234;2022-09-09T06:13:32;16.70;99.90
11128;DHT22;5618;51.028;5.234;2022-09-09T06:15:58;16.80;99.90
11128;DHT22;5618;51.028;5.234;2022-09-09T06:18:25;17.10;99.90
11128;DHT22;5618;51.028;5.234;2022-09-09T06:20:59;16.90;99.90
11128;DHT22;5618;51.028;5.234;2022-09-09T06:23:26;17.00;99.90
11128;DHT22;5618;51.028;5.234;2022-09-09T06:26:08;16.90;99.90
11128;DHT22;5618;51.028;5.234;2022-09-09T06:28:35;16.80;99.90
11128;DHT22;5618;51.028;5.234;2022-09-09T06:31:06;17.00;99.90
11128;DHT22;5618;51.028;5.234;2022-09-09T06:33:39;17.10;99.90
11128;DHT22;5618;51.028;5.234;2022-09-09T06:36:30;17.10;99.90
11128;DHT22;5618;51.028;5.234;2022-09-09T06:38:57;17.20;99.90
11128;DHT22;5618;51.028;5.234;2022-09-09T06:41:25;17.30;99.90
11128;DHT22;5618;51.028;5.234;2022-09-09T06:43:52;17.80;99.90
11128;DHT22;5618;51.028;5.234;2022-09-09T06:46:20;18.30;99.90
11128;DHT22;5618;51.028;5.234;2022-09-09T06:48:47;18.50;99.90
11128;DHT22;5618;51.028;5.234;2022-09-09T06:51:14;18.60;99.90
11128;DHT22;5618;51.028;5.234;2022-09-09T06:53:42;18.70;99.90
11128;DHT22;5618;51.028;5.234;2022-09-09T06:56:26;18.70;99.90
11128;DHT22;5618;51.028;5.234;2022-09-09T06:58:55;18.20;99.90
11128;DHT22;5618;51.028;5.234;2022-09-09T07:01:23;18.10;99.90
11128;DHT22;5618;51.028;5.234;2022-09-09T07:03:52;18.10;99.90
11128;DHT22;5618;51.028;5.234;2022-09-09T07:06:23;18.10;99.90
11128;DHT22;5618;51.028;5.234;2022-09-09T07:08:51;18.00;99.90
11128;DHT22;5618;51.028;5.234;2022-09-09T07:11:19;18.00;99.90
11128;DHT22;5618;51.028;5.234;2022-09-09T07:13:45;17.80;99.90
11128;DHT22;5618;51.028;5.234;2022-09-09T07:16:13;17.60;99.90
11128;DHT22;5618;51.028;5.234;2022-09-09T07:18:40;17.70;99.90
11128;DHT22;5618;51.028;5.234;2022-09-09T07:21:07;17.80;99.90
11128;DHT22;5618;51.028;5.234;2022-09-09T07:23:34;17.80;99.90
11128;DHT22;5618;51.028;5.234;2022-09-09T07:26:02;17.90;99.90
11128;DHT22;5618;51.028;5.234;2022-09-09T07:28:28;17.90;99.90
11128;DHT22;5618;51.028;5.234;2022-09-09T07:30:59;17.90;99.90
11128;DHT22;5618;51.028;5.234;2022-09-09T07:33:25;17.80;99.90
11128;DHT22;5618;51.028;5.234;2022-09-09T07:35:52;17.90;99.90
11128;DHT22;5618;51.028;5.234;2022-09-09T07:38:19;17.90;99.90
11128;DHT22;5618;51.028;5.234;2022-09-09T07:40:46;18.00;99.90
11128;DHT22;5618;51.028;5.234;2022-09-09T07:43:12;18.00;99.90
11128;DHT22;5618;51.028;5.234;2022-09-09T07:45:38;18.00;99.90
11128;DHT22;5618;51.028;5.234;2022-09-09T07:48:04;18.00;99.90
11128;DHT22;5618;51.028;5.234;2022-09-09T07:50:30;18.00;99.90
11128;DHT22;5618;51.028;5.234;2022-09-09T07:52:56;18.20;99.90
11128;DHT22;5618;51.028;5.234;2022-09-09T07:55:22;18.20;99.90
11128;DHT22;5618;51.028;5.234;2022-09-09T07:57:53;18.30;99.90
11128;DHT22;5618;51.028;5.234;2022-09-09T08:00:19;18.10;99.90
11128;DHT22;5618;51.028;5.234;2022-09-09T08:02:45;17.90;99.90
11128;DHT22;5618;51.028;5.234;2022-09-09T08:05:12;17.90;99.90
11128;DHT22;5618;51.028;5.234;2022-09-09T08:07:38;17.90;99.90
11128;DHT22;5618;51.028;5.234;2022-09-09T08:10:04;17.80;99.90
11128;DHT22;5618;51.028;5.234;2022-09-09T08:12:30;17.80;99.90
11128;DHT22;5618;51.028;5.234;2022-09-09T08:14:55;17.60;99.90
11128;DHT22;5618;51.028;5.234;2022-09-09T08:17:21;17.70;99.90
11128;DHT22;5618;51.028;5.234;2022-09-09T08:19:47;17.70;99.90
11128;DHT22;5618;51.028;5.234;2022-09-09T08:22:12;17.60;99.90
11128;DHT22;5618;51.028;5.234;2022-09-09T08:24:38;17.80;99.90
11128;DHT22;5618;51.028;5.234;2022-09-09T08:27:04;18.00;99.90
11128;DHT22;5618;51.028;5.234;2022-09-09T08:29:30;17.90;99.90
11128;DHT22;5618;51.028;5.234;2022-09-09T08:31:57;17.90;99.90
11128;DHT22;5618;51.028;5.234;2022-09-09T08:34:25;18.00;99.90
11128;DHT22;5618;51.028;5.234;2022-09-09T08:36:53;17.90;99.90
11128;DHT22;5618;51.028;5.234;2022-09-09T08:39:20;17.80;99.90
11128;DHT22;5618;51.028;5.234;2022-09-09T08:50:38;17.90;99.90
11128;DHT22;5618;51.028;5.234;2022-09-09T08:55:49;18.00;99.90
11128;DHT22;5618;51.028;5.234;2022-09-09T08:58:38;18.10;99.90
11128;DHT22;5618;51.028;5.234;2022-09-09T09:08:46;17.70;99.90
11128;DHT22;5618;51.028;5.234;2022-09-09T09:11:17;17.80;99.90
11128;DHT22;5618;51.028;5.234;2022-09-09T09:16:57;18.00;99.90
11128;DHT22;5618;51.028;5.234;2022-09-09T09:19:24;18.00;99.90
11128;DHT22;5618;51.028;5.234;2022-09-09T09:24:52;18.00;99.90
11128;DHT22;5618;51.028;5.234;2022-09-09T09:27:35;18.10;99.90
11128;DHT22;5618;51.028;5.234;2022-09-09T09:30:12;18.20;99.90
11128;DHT22;5618;51.028;5.234;2022-09-09T09:32:42;18.40;99.90
11128;DHT22;5618;51.028;5.234;2022-09-09T09:35:12;18.40;99.90
11128;DHT22;5618;51.028;5.234;2022-09-09T09:37:40;18.30;99.90
11128;DHT22;5618;51.028;5.234;2022-09-09T09:40:17;18.20;99.90
11128;DHT22;5618;51.028;5.234;2022-09-09T09:42:53;18.30;99.90
11128;DHT22;5618;51.028;5.234;2022-09-09T09:45:27;18.20;99.90
11128;DHT22;5618;51.028;5.234;2022-09-09T09:48:05;18.10;99.90
11128;DHT22;5618;51.028;5.234;2022-09-09T09:50:32;17.90;99.90
11128;DHT22;5618;51.028;5.234;2022-09-09T09:53:04;17.90;99.90
11128;DHT22;5618;51.028;5.234;2022-09-09T09:55:35;18.10;99.90
11128;DHT22;5618;51.028;5.234;2022-09-09T09:58:05;18.20;99.90
11128;DHT22;5618;51.028;5.234;2022-09-09T10:00:32;18.10;99.90
11128;DHT22;5618;51.028;5.234;2022-09-09T10:03:01;18.00;99.90
11128;DHT22;5618;51.028;5.234;2022-09-09T10:05:29;17.60;99.90
11128;DHT22;5618;51.028;5.234;2022-09-09T10:08:12;17.50;99.90
11128;DHT22;5618;51.028;5.234;2022-09-09T10:16:17;17.40;99.90
11128;DHT22;5618;51.028;5.234;2022-09-09T10:18:55;17.30;99.90
11128;DHT22;5618;51.028;5.234;2022-09-09T10:22:13;17.40;99.90
11128;DHT22;5618;51.028;5.234;2022-09-09T10:35:26;17.20;99.90
11128;DHT22;5618;51.028;5.234;2022-09-09T10:38:15;17.20;99.90
11128;DHT22;5618;51.028;5.234;2022-09-09T10:46:37;17.20;99.90
11128;DHT22;5618;51.028;5.234;2022-09-09T10:49:43;17.20;99.90
11128;DHT22;5618;51.028;5.234;2022-09-09T11:00:40;17.50;99.90
11128;DHT22;5618;51.028;5.234;2022-09-09T11:03:13;17.70;99.90
11128;DHT22;5618;51.028;5.234;2022-09-09T11:05:46;17.70;99.90
11128;DHT22;5618;51.028;5.234;2022-09-09T11:08:24;17.70;99.90
11128;DHT22;5618;51.028;5.234;2022-09-09T11:11:55;17.70;99.90
11128;DHT22;5618;51.028;5.234;2022-09-09T11:14:03;17.70;99.90
11128;DHT22;5618;51.028;5.234;2022-09-09T11:16:53;17.90;99.90
11128;DHT22;5618;51.028;5.234;2022-09-09T11:19:26;18.00;99.90
11128;DHT22;5618;51.028;5.234;2022-09-09T11:21:55;17.90;99.90
11128;DHT22;5618;51.028;5.234;2022-09-09T11:24:40;18.00;99.90
11128;DHT22;5618;51.028;5.234;2022-09-09T11:38:48;18.40;99.90
11128;DHT22;5618;51.028;5.234;2022-09-09T11:41:17;18.30;99.90
11128;DHT22;5618;51.028;5.234;2022-09-09T11:43:51;18.20;99.90
11128;DHT22;5618;51.028;5.234;2022-09-09T11:46:20;18.30;99.90
11128;DHT22;5618;51.028;5.234;2022-09-09T11:48:58;18.30;99.90
11128;DHT22;5618;51.028;5.234;2022-09-09T11:53:53;18.40;99.90
11128;DHT22;5618;51.028;5.234;2022-09-09T11:56:33;18.30;99.90
11128;DHT22;5618;51.028;5.234;2022-09-09T11:59:03;18.40;99.90
11128;DHT22;5618;51.028;5.234;2022-09-09T12:11:43;18.50;99.90
11128;DHT22;5618;51.028;5.234;2022-09-09T12:17:25;18.70;99.90
11128;DHT22;5618;51.028;5.234;2022-09-09T12:28:17;19.00;99.90
11128;DHT22;5618;51.028;5.234;2022-09-09T12:33:18;19.00;99.90
11128;DHT22;5618;51.028;5.234;2022-09-09T12:35:51;19.10;99.90
11128;DHT22;5618;51.028;5.234;2022-09-09T12:38:43;19.10;99.90
11128;DHT22;5618;51.028;5.234;2022-09-09T12:41:26;18.50;99.90
11128;DHT22;5618;51.028;5.234;2022-09-09T12:44:04;18.50;99.90
11128;DHT22;5618;51.028;5.234;2022-09-09T12:46:40;18.60;99.90
11128;DHT22;5618;51.028;5.234;2022-09-09T12:49:42;18.60;99.90
11128;DHT22;5618;51.028;5.234;2022-09-09T12:52:25;18.60;99.90
11128;DHT22;5618;51.028;5.234;2022-09-09T12:54:52;18.80;99.90
11128;DHT22;5618;51.028;5.234;2022-09-09T12:57:19;18.80;99.90
11128;DHT22;5618;51.028;5.234;2022-09-09T12:59:45;18.70;99.90
11128;DHT22;5618;51.028;5.234;2022-09-09T13:02:22;18.80;99.90
11128;DHT22;5618;51.028;5.234;2022-09-09T13:04:49;19.00;99.90
11128;DHT22;5618;51.028;5.234;2022-09-09T13:07:16;18.70;99.90
11128;DHT22;5618;51.028;5.234;2022-09-09T13:09:43;18.90;99.90
11128;DHT22;5618;51.028;5.234;2022-09-09T13:12:21;19.00;99.90
11128;DHT22;5618;51.028;5.234;2022-09-09T13:14:55;19.10;99.90
11128;DHT22;5618;51.028;5.234;2022-09-09T13:17:26;19.20;99.90
11128;DHT22;5618;51.028;5.234;2022-09-09T13:19:54;19.30;99.90
11128;DHT22;5618;51.028;5.234;2022-09-09T13:22:39;19.10;99.90
11128;DHT22;5618;51.028;5.234;2022-09-09T13:27:40;18.80;99.90
11128;DHT22;5618;51.028;5.234;2022-09-09T13:30:35;18.90;99.90
11128;DHT22;5618;51.028;5.234;2022-09-09T13:38:17;19.20;99.90
11128;DHT22;5618;51.028;5.234;2022-09-09T13:41:00;19.10;99.90
11128;DHT22;5618;51.028;5.234;2022-09-09T13:43:46;19.30;99.90
11128;DHT22;5618;51.028;5.234;2022-09-09T13:46:35;19.20;99.90
11128;DHT22;5618;51.028;5.234;2022-09-09T13:51:39;19.30;99.90
11128;DHT22;5618;51.028;5.234;2022-09-09T13:54:06;19.20;99.90
11128;DHT22;5618;51.028;5.234;2022-09-09T13:56:34;19.20;99.90
11128;DHT22;5618;51.028;5.234;2022-09-09T13:59:01;19.40;99.90
11128;DHT22;5618;51.028;5.234;2022-09-09T14:01:27;19.40;99.90
11128;DHT22;5618;51.028;5.234;2022-09-09T14:03:53;19.20;99.90
11128;DHT22;5618;51.028;5.234;2022-09-09T14:06:20;19.20;99.90
11128;DHT22;5618;51.028;5.234;2022-09-09T14:08:48;19.20;99.90
11128;DHT22;5618;51.028;5.234;2022-09-09T14:11:16;19.10;99.90
11128;DHT22;5618;51.028;5.234;2022-09-09T14:13:41;19.30;99.90
11128;DHT22;5618;51.028;5.234;2022-09-09T14:16:07;19.40;99.90
11128;DHT22;5618;51.028;5.234;2022-09-09T14:18:33;19.20;99.90
11128;DHT22;5618;51.028;5.234;2022-09-09T14:20:59;19.20;99.90
11128;DHT22;5618;51.028;5.234;2022-09-09T14:23:25;19.40;99.90
11128;DHT22;5618;51.028;5.234;2022-09-09T14:25:51;19.50;99.90
11128;DHT22;5618;51.028;5.234;2022-09-09T14:28:17;19.50;99.90
11128;DHT22;5618;51.028;5.234;2022-09-09T14:30:43;19.70;99.90
11128;DHT22;5618;51.028;5.234;2022-09-09T14:33:12;19.80;99.90
11128;DHT22;5618;51.028;5.234;2022-09-09T14:35:38;20.00;99.90
11128;DHT22;5618;51.028;5.234;2022-09-09T14:38:07;20.20;99.90
11128;DHT22;5618;51.028;5.234;2022-09-09T14:40:35;20.20;99.90
11128;DHT22;5618;51.028;5.234;2022-09-09T14:43:01;20.20;99.90
11128;DHT22;5618;51.028;5.234;2022-09-09T14:45:27;20.40;99.90
11128;DHT22;5618;51.028;5.234;2022-09-09T14:47:54;20.40;99.90
11128;DHT22;5618;51.028;5.234;2022-09-09T14:50:20;20.50;99.90
11128;DHT22;5618;51.028;5.234;2022-09-09T14:52:48;20.60;99.90
11128;DHT22;5618;51.028;5.234;2022-09-09T14:55:14;20.50;99.90
11128;DHT22;5618;51.028;5.234;2022-09-09T14:57:40;20.30;99.90
11128;DHT22;5618;51.028;5.234;2022-09-09T15:00:07;20.00;99.90
11128;DHT22;5618;51.028;5.234;2022-09-09T15:02:33;20.10;99.90
11128;DHT22;5618;51.028;5.234;2022-09-09T15:04:59;20.20;99.90
11128;DHT22;5618;51.028;5.234;2022-09-09T15:07:25;20.50;99.90
11128;DHT22;5618;51.028;5.234;2022-09-09T15:09:52;20.50;99.90
11128;DHT22;5618;51.028;5.234;2022-09-09T15:12:18;20.40;99.90
11128;DHT22;5618;51.028;5.234;2022-09-09T15:14:45;20.30;99.90
11128;DHT22;5618;51.028;5.234;2022-09-09T15:17:11;20.30;99.90
11128;DHT22;5618;51.028;5.234;2022-09-09T15:19:37;20.20;99.90
11128;DHT22;5618;51.028;5.234;2022-09-09T15:22:04;20.20;99.90
11128;DHT22;5618;51.028;5.234;2022-09-09T15:24:34;20.20;99.90
11128;DHT22;5618;51.028;5.234;2022-09-09T15:27:01;20.40;99.90
11128;DHT22;5618;51.028;5.234;2022-09-09T15:29:27;20.30;99.90
11128;DHT22;5618;51.028;5.234;2022-09-09T15:31:56;20.10;99.90
11128;DHT22;5618;51.028;5.234;2022-09-09T15:34:22;20.20;99.90
11128;DHT22;5618;51.028;5.234;2022-09-09T15:36:48;20.40;99.90
11128;DHT22;5618;51.028;5.234;2022-09-09T15:39:16;20.50;99.90
11128;DHT22;5618;51.028;5.234;2022-09-09T15:41:44;20.50;99.90
11128;DHT22;5618;51.028;5.234;2022-09-09T15:44:10;20.50;99.90
11128;DHT22;5618;51.028;5.234;2022-09-09T15:46:59;20.60;99.90
11128;DHT22;5618;51.028;5.234;2022-09-09T15:49:26;20.60;99.90
11128;DHT22;5618;51.028;5.234;2022-09-09T15:51:57;20.40;99.90
11128;DHT22;5618;51.028;5.234;2022-09-09T15:54:24;20.40;99.90
11128;DHT22;5618;51.028;5.234;2022-09-09T15:56:59;20.50;99.90
11128;DHT22;5618;51.028;5.234;2022-09-09T15:59:26;20.60;99.90
11128;DHT22;5618;51.028;5.234;2022-09-09T16:01:53;20.80;99.90
11128;DHT22;5618;51.028;5.234;2022-09-09T16:04:21;20.70;99.90
11128;DHT22;5618;51.028;5.234;2022-09-09T16:06:54;20.60;99.90
11128;DHT22;5618;51.028;5.234;2022-09-09T16:09:20;20.20;99.90
11128;DHT22;5618;51.028;5.234;2022-09-09T16:11:47;20.10;99.90
11128;DHT22;5618;51.028;5.234;2022-09-09T16:14:14;20.00;99.90
11128;DHT22;5618;51.028;5.234;2022-09-09T16:16:41;20.00;99.90
11128;DHT22;5618;51.028;5.234;2022-09-09T16:19:09;20.00;99.90
11128;DHT22;5618;51.028;5.234;2022-09-09T16:21:43;20.00;99.90
11128;DHT22;5618;51.028;5.234;2022-09-09T16:24:12;20.00;99.90
11128;DHT22;5618;51.028;5.234;2022-09-09T16:26:40;20.00;99.90
11128;DHT22;5618;51.028;5.234;2022-09-09T16:29:07;19.90;99.90
11128;DHT22;5618;51.028;5.234;2022-09-09T16:31:34;19.80;99.90
11128;DHT22;5618;51.028;5.234;2022-09-09T16:34:00;19.70;99.90
11128;DHT22;5618;51.028;5.234;2022-09-09T16:36:28;19.80;99.90
11128;DHT22;5618;51.028;5.234;2022-09-09T16:38:57;19.90;99.90
11128;DHT22;5618;51.028;5.234;2022-09-09T16:41:24;20.10;99.90
11128;DHT22;5618;51.028;5.234;2022-09-09T16:43:55;20.10;99.90
11128;DHT22;5618;51.028;5.234;2022-09-09T16:46:21;20.10;99.90
11128;DHT22;5618;51.028;5.234;2022-09-09T16:48:47;20.10;99.90
11128;DHT22;5618;51.028;5.234;2022-09-09T16:51:18;20.10;99.90
11128;DHT22;5618;51.028;5.234;2022-09-09T16:53:45;20.10;99.90
11128;DHT22;5618;51.028;5.234;2022-09-09T16:56:19;20.00;99.90
11128;DHT22;5618;51.028;5.234;2022-09-09T16:58:59;20.30;99.90
11128;DHT22;5618;51.028;5.234;2022-09-09T17:01:30;20.40;99.90
11128;DHT22;5618;51.028;5.234;2022-09-09T17:04:00;20.50;99.90
11128;DHT22;5618;51.028;5.234;2022-09-09T17:06:29;20.40;99.90
11128;DHT22;5618;51.028;5.234;2022-09-09T17:08:58;20.40;99.90
11128;DHT22;5618;51.028;5.234;2022-09-09T17:11:25;20.30;99.90
11128;DHT22;5618;51.028;5.234;2022-09-09T17:13:52;20.20;99.90
11128;DHT22;5618;51.028;5.234;2022-09-09T17:16:19;20.20;99.90
11128;DHT22;5618;51.028;5.234;2022-09-09T17:18:48;20.20;99.90
11128;DHT22;5618;51.028;5.234;2022-09-09T17:21:16;20.20;99.90
11128;DHT22;5618;51.028;5.234;2022-09-09T17:23:43;20.00;99.90
11128;DHT22;5618;51.028;5.234;2022-09-09T17:26:12;19.90;99.90
11128;DHT22;5618;51.028;5.234;2022-09-09T17:28:38;19.70;99.90
11128;DHT22;5618;51.028;5.234;2022-09-09T17:31:06;19.70;99.90
11128;DHT22;5618;51.028;5.234;2022-09-09T17:33:33;19.70;99.90
11128;DHT22;5618;51.028;5.234;2022-09-09T17:36:00;19.50;99.90
11128;DHT22;5618;51.028;5.234;2022-09-09T17:38:27;19.70;99.90
11128;DHT22;5618;51.028;5.234;2022-09-09T17:41:12;19.60;99.90
11128;DHT22;5618;51.028;5.234;2022-09-09T17:43:38;19.60;99.90
11128;DHT22;5618;51.028;5.234;2022-09-09T17:46:16;19.60;99.90
11128;DHT22;5618;51.028;5.234;2022-09-09T17:48:44;19.50;99.90
11128;DHT22;5618;51.028;5.234;2022-09-09T17:51:13;19.30;99.90
11128;DHT22;5618;51.028;5.234;2022-09-09T17:53:44;19.30;99.90
11128;DHT22;5618;51.028;5.234;2022-09-09T17:56:13;19.20;99.90
11128;DHT22;5618;51.028;5.234;2022-09-09T17:58:40;19.30;99.90
11128;DHT22;5618;51.028;5.234;2022-09-09T18:01:11;19.30;99.90
11128;DHT22;5618;51.028;5.234;2022-09-09T18:03:38;19.40;99.90
11128;DHT22;5618;51.028;5.234;2022-09-09T18:06:07;19.40;99.90
11128;DHT22;5618;51.028;5.234;2022-09-09T18:08:33;19.40;99.90
11128;DHT22;5618;51.028;5.234;2022-09-09T18:11:00;19.40;99.90
11128;DHT22;5618;51.028;5.234;2022-09-09T18:13:26;19.30;99.90
11128;DHT22;5618;51.028;5.234;2022-09-09T18:15:53;19.20;99.90
11128;DHT22;5618;51.028;5.234;2022-09-09T18:18:19;19.10;99.90
11128;DHT22;5618;51.028;5.234;2022-09-09T18:20:46;19.00;99.90
11128;DHT22;5618;51.028;5.234;2022-09-09T18:23:11;19.00;99.90
11128;DHT22;5618;51.028;5.234;2022-09-09T18:25:40;19.10;99.90
11128;DHT22;5618;51.028;5.234;2022-09-09T18:28:06;19.00;99.90
11128;DHT22;5618;51.028;5.234;2022-09-09T18:30:33;18.70;99.90
11128;DHT22;5618;51.028;5.234;2022-09-09T18:32:59;18.30;99.90
11128;DHT22;5618;51.028;5.234;2022-09-09T18:35:24;18.00;99.90
11128;DHT22;5618;51.028;5.234;2022-09-09T18:37:50;18.20;99.90